sensor_id;sensor_type;location;lat;lon;timestamp;P1;durP1;ratioP1;P2;durP2;ratioP2
67528;SDS011;54366;51.980;5.856;2024-02-16T00:01:38;2.05;;;1.05;;
67528;SDS011;54366;51.980;5.856;2024-02-16T00:04:04;1.88;;;0.93;;
67528;SDS011;54366;51.980;5.856;2024-02-16T00:06:30;1.10;;;0.90;;
67528;SDS011;54366;51.980;5.856;2024-02-16T00:08:56;2.08;;;1.20;;
67528;SDS011;54366;51.980;5.856;2024-02-16T00:11:23;0.88;;;0.85;;
67528;SDS011;54366;51.980;5.856;2024-02-16T00:13:51;1.20;;;0.80;;
67528;SDS011;54366;51.980;5.856;2024-02-16T00:16:17;3.13;;;1.10;;
67528;SDS011;54366;51.980;5.856;2024-02-16T00:18:43;2.10;;;1.05;;
67528;SDS011;54366;51.980;5.856;2024-02-16T00:21:09;2.25;;;1.10;;
67528;SDS011;54366;51.980;5.856;2024-02-16T00:23:36;2.00;;;1.20;;
67528;SDS011;54366;51.980;5.856;2024-02-16T00:26:02;3.20;;;1.13;;
67528;SDS011;54366;51.980;5.856;2024-02-16T00:28:35;1.10;;;0.70;;
67528;SDS011;54366;51.980;5.856;2024-02-16T00:31:05;1.20;;;1.00;;
67528;SDS011;54366;51.980;5.856;2024-02-16T00:33:31;1.00;;;0.85;;
67528;SDS011;54366;51.980;5.856;2024-02-16T00:35:57;2.28;;;0.90;;
67528;SDS011;54366;51.980;5.856;2024-02-16T00:38:23;1.70;;;0.90;;
67528;SDS011;54366;51.980;5.856;2024-02-16T00:40:50;1.35;;;0.85;;
67528;SDS011;54366;51.980;5.856;2024-02-16T00:43:16;1.50;;;1.20;;
67528;SDS011;54366;51.980;5.856;2024-02-16T00:45:43;1.63;;;1.25;;
67528;SDS011;54366;51.980;5.856;2024-02-16T00:48:10;2.22;;;1.15;;
67528;SDS011;54366;51.980;5.856;2024-02-16T00:50:37;1.30;;;1.10;;
67528;SDS011;54366;51.980;5.856;2024-02-16T00:53:03;1.23;;;1.00;;
67528;SDS011;54366;51.980;5.856;2024-02-16T00:55:30;1.55;;;0.77;;
67528;SDS011;54366;51.980;5.856;2024-02-16T00:57:56;1.75;;;1.05;;
67528;SDS011;54366;51.980;5.856;2024-02-16T01:00:22;2.38;;;1.10;;
67528;SDS011;54366;51.980;5.856;2024-02-16T01:02:49;1.30;;;0.90;;
67528;SDS011;54366;51.980;5.856;2024-02-16T01:05:15;2.20;;;0.88;;
67528;SDS011;54366;51.980;5.856;2024-02-16T01:07:43;1.48;;;0.90;;
67528;SDS011;54366;51.980;5.856;2024-02-16T01:10:11;2.20;;;0.88;;
67528;SDS011;54366;51.980;5.856;2024-02-16T01:12:38;1.75;;;1.00;;
67528;SDS011;54366;51.980;5.856;2024-02-16T01:15:04;2.35;;;1.10;;
67528;SDS011;54366;51.980;5.856;2024-02-16T01:17:31;1.35;;;1.00;;
67528;SDS011;54366;51.980;5.856;2024-02-16T01:19:58;1.92;;;1.05;;
67528;SDS011;54366;51.980;5.856;2024-02-16T01:22:25;1.55;;;0.90;;
67528;SDS011;54366;51.980;5.856;2024-02-16T01:24:52;1.15;;;1.00;;
67528;SDS011;54366;51.980;5.856;2024-02-16T01:27:18;1.08;;;0.90;;
67528;SDS011;54366;51.980;5.856;2024-02-16T01:29:44;0.85;;;0.82;;
67528;SDS011;54366;51.980;5.856;2024-02-16T01:32:11;1.75;;;1.08;;
67528;SDS011;54366;51.980;5.856;2024-02-16T01:34:39;2.47;;;1.00;;
67528;SDS011;54366;51.980;5.856;2024-02-16T01:37:05;1.67;;;1.00;;
67528;SDS011;54366;51.980;5.856;2024-02-16T01:39:32;1.20;;;1.00;;
67528;SDS011;54366;51.980;5.856;2024-02-16T01:41:58;1.33;;;1.00;;
67528;SDS011;54366;51.980;5.856;2024-02-16T01:44:24;2.03;;;1.02;;
67528;SDS011;54366;51.980;5.856;2024-02-16T01:46:51;1.27;;;0.90;;
67528;SDS011;54366;51.980;5.856;2024-02-16T01:49:17;1.52;;;1.00;;
67528;SDS011;54366;51.980;5.856;2024-02-16T01:51:43;1.00;;;0.80;;
67528;SDS011;54366;51.980;5.856;2024-02-16T01:54:11;0.90;;;0.70;;
67528;SDS011;54366;51.980;5.856;2024-02-16T01:56:37;1.13;;;0.90;;
67528;SDS011;54366;51.980;5.856;2024-02-16T01:59:04;1.40;;;0.90;;
67528;SDS011;54366;51.980;5.856;2024-02-16T02:01:31;1.10;;;0.90;;
67528;SDS011;54366;51.980;5.856;2024-02-16T02:03:57;1.83;;;0.90;;
67528;SDS011;54366;51.980;5.856;2024-02-16T02:06:24;1.15;;;0.82;;
67528;SDS011;54366;51.980;5.856;2024-02-16T02:08:50;1.70;;;0.98;;
67528;SDS011;54366;51.980;5.856;2024-02-16T02:11:17;0.80;;;0.77;;
67528;SDS011;54366;51.980;5.856;2024-02-16T02:13:43;1.25;;;0.90;;
67528;SDS011;54366;51.980;5.856;2024-02-16T02:16:10;1.20;;;0.95;;
67528;SDS011;54366;51.980;5.856;2024-02-16T02:18:37;0.75;;;0.68;;
67528;SDS011;54366;51.980;5.856;2024-02-16T02:21:03;1.15;;;0.80;;
67528;SDS011;54366;51.980;5.856;2024-02-16T02:23:30;1.00;;;0.90;;
67528;SDS011;54366;51.980;5.856;2024-02-16T02:25:56;1.58;;;1.13;;
67528;SDS011;54366;51.980;5.856;2024-02-16T02:28:23;1.77;;;1.10;;
67528;SDS011;54366;51.980;5.856;2024-02-16T02:30:50;2.15;;;1.00;;
67528;SDS011;54366;51.980;5.856;2024-02-16T02:33:16;1.98;;;1.00;;
67528;SDS011;54366;51.980;5.856;2024-02-16T02:35:43;1.30;;;0.90;;
67528;SDS011;54366;51.980;5.856;2024-02-16T02:38:09;1.58;;;1.10;;
67528;SDS011;54366;51.980;5.856;2024-02-16T02:40:35;1.10;;;1.00;;
67528;SDS011;54366;51.980;5.856;2024-02-16T02:43:02;1.13;;;0.90;;
67528;SDS011;54366;51.980;5.856;2024-02-16T02:45:29;1.63;;;0.82;;
67528;SDS011;54366;51.980;5.856;2024-02-16T02:47:55;1.02;;;0.90;;
67528;SDS011;54366;51.980;5.856;2024-02-16T02:50:22;1.67;;;1.30;;
67528;SDS011;54366;51.980;5.856;2024-02-16T02:52:48;1.83;;;1.10;;
67528;SDS011;54366;51.980;5.856;2024-02-16T02:55:15;1.00;;;0.88;;
67528;SDS011;54366;51.980;5.856;2024-02-16T02:57:42;1.40;;;0.77;;
67528;SDS011;54366;51.980;5.856;2024-02-16T03:00:09;1.77;;;0.90;;
67528;SDS011;54366;51.980;5.856;2024-02-16T03:02:38;1.30;;;0.95;;
67528;SDS011;54366;51.980;5.856;2024-02-16T03:05:07;1.00;;;0.80;;
67528;SDS011;54366;51.980;5.856;2024-02-16T03:07:34;1.13;;;0.98;;
67528;SDS011;54366;51.980;5.856;2024-02-16T03:10:01;0.88;;;0.70;;
67528;SDS011;54366;51.980;5.856;2024-02-16T03:12:29;1.10;;;0.95;;
67528;SDS011;54366;51.980;5.856;2024-02-16T03:14:55;1.48;;;1.02;;
67528;SDS011;54366;51.980;5.856;2024-02-16T03:17:22;1.15;;;0.80;;
67528;SDS011;54366;51.980;5.856;2024-02-16T03:19:48;1.42;;;0.80;;
67528;SDS011;54366;51.980;5.856;2024-02-16T03:22:14;1.30;;;0.80;;
67528;SDS011;54366;51.980;5.856;2024-02-16T03:24:40;1.10;;;0.80;;
67528;SDS011;54366;51.980;5.856;2024-02-16T03:27:07;0.70;;;0.70;;
67528;SDS011;54366;51.980;5.856;2024-02-16T03:29:33;1.40;;;1.00;;
67528;SDS011;54366;51.980;5.856;2024-02-16T03:31:59;1.58;;;1.00;;
67528;SDS011;54366;51.980;5.856;2024-02-16T03:34:26;1.05;;;0.82;;
67528;SDS011;54366;51.980;5.856;2024-02-16T03:36:52;2.08;;;0.93;;
67528;SDS011;54366;51.980;5.856;2024-02-16T03:39:18;1.58;;;1.27;;
67528;SDS011;54366;51.980;5.856;2024-02-16T03:41:45;2.05;;;0.95;;
67528;SDS011;54366;51.980;5.856;2024-02-16T03:44:15;1.42;;;0.90;;
67528;SDS011;54366;51.980;5.856;2024-02-16T03:46:42;1.02;;;0.73;;
67528;SDS011;54366;51.980;5.856;2024-02-16T03:49:09;1.77;;;0.90;;
67528;SDS011;54366;51.980;5.856;2024-02-16T03:51:35;1.60;;;0.93;;
67528;SDS011;54366;51.980;5.856;2024-02-16T03:54:03;0.68;;;0.50;;
67528;SDS011;54366;51.980;5.856;2024-02-16T03:56:30;0.90;;;0.70;;
67528;SDS011;54366;51.980;5.856;2024-02-16T03:58:56;1.25;;;1.02;;
67528;SDS011;54366;51.980;5.856;2024-02-16T04:01:23;0.90;;;0.63;;
67528;SDS011;54366;51.980;5.856;2024-02-16T04:03:49;0.73;;;0.73;;
67528;SDS011;54366;51.980;5.856;2024-02-16T04:06:17;1.00;;;0.90;;
67528;SDS011;54366;51.980;5.856;2024-02-16T04:08:44;1.10;;;0.98;;
67528;SDS011;54366;51.980;5.856;2024-02-16T04:11:13;2.25;;;0.93;;
67528;SDS011;54366;51.980;5.856;2024-02-16T04:13:41;0.95;;;0.70;;
67528;SDS011;54366;51.980;5.856;2024-02-16T04:16:07;1.23;;;1.00;;
67528;SDS011;54366;51.980;5.856;2024-02-16T04:18:33;0.80;;;0.80;;
67528;SDS011;54366;51.980;5.856;2024-02-16T04:21:00;1.10;;;0.90;;
67528;SDS011;54366;51.980;5.856;2024-02-16T04:23:26;0.85;;;0.85;;
67528;SDS011;54366;51.980;5.856;2024-02-16T04:25:53;1.45;;;1.15;;
67528;SDS011;54366;51.980;5.856;2024-02-16T04:28:19;1.55;;;1.00;;
67528;SDS011;54366;51.980;5.856;2024-02-16T04:30:45;1.30;;;0.77;;
67528;SDS011;54366;51.980;5.856;2024-02-16T04:33:12;0.98;;;0.88;;
67528;SDS011;54366;51.980;5.856;2024-02-16T04:35:38;1.30;;;0.90;;
67528;SDS011;54366;51.980;5.856;2024-02-16T04:38:04;2.17;;;1.15;;
67528;SDS011;54366;51.980;5.856;2024-02-16T04:40:36;1.77;;;1.35;;
67528;SDS011;54366;51.980;5.856;2024-02-16T04:43:03;1.15;;;1.05;;
67528;SDS011;54366;51.980;5.856;2024-02-16T04:45:29;1.55;;;1.20;;
67528;SDS011;54366;51.980;5.856;2024-02-16T04:47:56;0.90;;;0.80;;
67528;SDS011;54366;51.980;5.856;2024-02-16T04:50:22;0.70;;;0.70;;
67528;SDS011;54366;51.980;5.856;2024-02-16T04:52:49;2.05;;;0.93;;
67528;SDS011;54366;51.980;5.856;2024-02-16T04:55:15;1.17;;;1.08;;
67528;SDS011;54366;51.980;5.856;2024-02-16T04:57:42;1.52;;;1.10;;
67528;SDS011;54366;51.980;5.856;2024-02-16T05:00:08;1.20;;;1.10;;
67528;SDS011;54366;51.980;5.856;2024-02-16T05:02:35;0.85;;;0.85;;
67528;SDS011;54366;51.980;5.856;2024-02-16T05:05:02;1.52;;;1.10;;
67528;SDS011;54366;51.980;5.856;2024-02-16T05:07:29;1.48;;;1.13;;
67528;SDS011;54366;51.980;5.856;2024-02-16T05:09:56;1.40;;;0.80;;
67528;SDS011;54366;51.980;5.856;2024-02-16T05:12:24;1.25;;;1.00;;
67528;SDS011;54366;51.980;5.856;2024-02-16T05:14:52;1.20;;;1.02;;
67528;SDS011;54366;51.980;5.856;2024-02-16T05:17:18;2.03;;;1.15;;
67528;SDS011;54366;51.980;5.856;2024-02-16T05:19:45;1.20;;;1.10;;
67528;SDS011;54366;51.980;5.856;2024-02-16T05:22:12;1.20;;;1.10;;
67528;SDS011;54366;51.980;5.856;2024-02-16T05:24:38;1.40;;;1.20;;
67528;SDS011;54366;51.980;5.856;2024-02-16T05:27:04;1.20;;;0.90;;
67528;SDS011;54366;51.980;5.856;2024-02-16T05:29:31;1.45;;;1.20;;
67528;SDS011;54366;51.980;5.856;2024-02-16T05:31:57;1.45;;;1.00;;
67528;SDS011;54366;51.980;5.856;2024-02-16T05:34:23;1.35;;;1.23;;
67528;SDS011;54366;51.980;5.856;2024-02-16T05:36:50;1.73;;;1.35;;
67528;SDS011;54366;51.980;5.856;2024-02-16T05:39:16;1.77;;;1.40;;
67528;SDS011;54366;51.980;5.856;2024-02-16T05:41:46;1.88;;;1.30;;
67528;SDS011;54366;51.980;5.856;2024-02-16T05:44:12;1.42;;;1.17;;
67528;SDS011;54366;51.980;5.856;2024-02-16T05:46:39;1.70;;;1.30;;
67528;SDS011;54366;51.980;5.856;2024-02-16T05:49:05;1.50;;;1.15;;
67528;SDS011;54366;51.980;5.856;2024-02-16T05:51:35;1.48;;;1.15;;
67528;SDS011;54366;51.980;5.856;2024-02-16T05:54:02;0.90;;;0.80;;
67528;SDS011;54366;51.980;5.856;2024-02-16T05:56:29;1.38;;;1.27;;
67528;SDS011;54366;51.980;5.856;2024-02-16T05:58:55;0.82;;;0.82;;
67528;SDS011;54366;51.980;5.856;2024-02-16T06:01:22;1.42;;;1.20;;
67528;SDS011;54366;51.980;5.856;2024-02-16T06:03:48;2.35;;;1.23;;
67528;SDS011;54366;51.980;5.856;2024-02-16T06:06:14;2.95;;;1.13;;
67528;SDS011;54366;51.980;5.856;2024-02-16T06:08:40;1.80;;;1.60;;
67528;SDS011;54366;51.980;5.856;2024-02-16T06:11:07;1.63;;;1.52;;
67528;SDS011;54366;51.980;5.856;2024-02-16T06:13:33;1.40;;;1.20;;
67528;SDS011;54366;51.980;5.856;2024-02-16T06:16:00;2.47;;;1.40;;
67528;SDS011;54366;51.980;5.856;2024-02-16T06:18:26;1.95;;;1.17;;
67528;SDS011;54366;51.980;5.856;2024-02-16T06:20:55;1.30;;;1.20;;
67528;SDS011;54366;51.980;5.856;2024-02-16T06:23:21;1.40;;;1.10;;
67528;SDS011;54366;51.980;5.856;2024-02-16T06:25:47;1.30;;;1.20;;
67528;SDS011;54366;51.980;5.856;2024-02-16T06:28:14;1.33;;;1.10;;
67528;SDS011;54366;51.980;5.856;2024-02-16T06:30:40;1.73;;;1.40;;
67528;SDS011;54366;51.980;5.856;2024-02-16T06:33:06;2.58;;;1.65;;
67528;SDS011;54366;51.980;5.856;2024-02-16T06:35:33;1.80;;;1.30;;
67528;SDS011;54366;51.980;5.856;2024-02-16T06:37:59;1.50;;;1.27;;
67528;SDS011;54366;51.980;5.856;2024-02-16T06:40:25;3.05;;;1.80;;
67528;SDS011;54366;51.980;5.856;2024-02-16T06:42:52;1.77;;;1.55;;
67528;SDS011;54366;51.980;5.856;2024-02-16T06:45:18;1.80;;;1.70;;
67528;SDS011;54366;51.980;5.856;2024-02-16T06:47:45;2.13;;;1.60;;
67528;SDS011;54366;51.980;5.856;2024-02-16T06:50:12;2.17;;;1.98;;
67528;SDS011;54366;51.980;5.856;2024-02-16T06:52:38;1.70;;;1.55;;
67528;SDS011;54366;51.980;5.856;2024-02-16T06:55:04;1.88;;;1.70;;
67528;SDS011;54366;51.980;5.856;2024-02-16T06:57:31;2.58;;;1.65;;
67528;SDS011;54366;51.980;5.856;2024-02-16T06:59:57;1.60;;;1.40;;
67528;SDS011;54366;51.980;5.856;2024-02-16T07:02:24;2.10;;;1.75;;
67528;SDS011;54366;51.980;5.856;2024-02-16T07:04:50;1.50;;;1.40;;
67528;SDS011;54366;51.980;5.856;2024-02-16T07:07:17;2.00;;;1.80;;
67528;SDS011;54366;51.980;5.856;2024-02-16T07:09:44;1.73;;;1.58;;
67528;SDS011;54366;51.980;5.856;2024-02-16T07:12:10;1.70;;;1.38;;
67528;SDS011;54366;51.980;5.856;2024-02-16T07:14:38;2.13;;;1.70;;
67528;SDS011;54366;51.980;5.856;2024-02-16T07:17:05;1.20;;;1.10;;
67528;SDS011;54366;51.980;5.856;2024-02-16T07:19:35;1.02;;;0.95;;
67528;SDS011;54366;51.980;5.856;2024-02-16T07:22:02;1.60;;;1.50;;
67528;SDS011;54366;51.980;5.856;2024-02-16T07:24:32;2.15;;;1.40;;
67528;SDS011;54366;51.980;5.856;2024-02-16T07:26:59;1.40;;;1.20;;
67528;SDS011;54366;51.980;5.856;2024-02-16T07:29:25;1.90;;;1.40;;
67528;SDS011;54366;51.980;5.856;2024-02-16T07:31:53;1.20;;;1.10;;
67528;SDS011;54366;51.980;5.856;2024-02-16T07:34:19;1.10;;;1.00;;
67528;SDS011;54366;51.980;5.856;2024-02-16T07:36:45;0.80;;;0.80;;
67528;SDS011;54366;51.980;5.856;2024-02-16T07:39:12;1.67;;;1.58;;
67528;SDS011;54366;51.980;5.856;2024-02-16T07:41:38;2.25;;;1.65;;
67528;SDS011;54366;51.980;5.856;2024-02-16T07:44:05;1.83;;;1.38;;
67528;SDS011;54366;51.980;5.856;2024-02-16T07:46:31;1.65;;;1.55;;
67528;SDS011;54366;51.980;5.856;2024-02-16T07:48:57;2.28;;;1.65;;
67528;SDS011;54366;51.980;5.856;2024-02-16T07:51:24;1.52;;;1.42;;
67528;SDS011;54366;51.980;5.856;2024-02-16T07:53:50;1.40;;;1.30;;
67528;SDS011;54366;51.980;5.856;2024-02-16T07:56:16;1.90;;;1.40;;
67528;SDS011;54366;51.980;5.856;2024-02-16T07:58:43;2.63;;;1.15;;
67528;SDS011;54366;51.980;5.856;2024-02-16T08:01:11;2.03;;;1.55;;
67528;SDS011;54366;51.980;5.856;2024-02-16T08:03:40;1.83;;;1.30;;
67528;SDS011;54366;51.980;5.856;2024-02-16T08:06:07;1.98;;;1.85;;
67528;SDS011;54366;51.980;5.856;2024-02-16T08:08:33;3.30;;;1.80;;
67528;SDS011;54366;51.980;5.856;2024-02-16T08:10:59;1.90;;;1.52;;
67528;SDS011;54366;51.980;5.856;2024-02-16T08:13:26;2.25;;;1.75;;
67528;SDS011;54366;51.980;5.856;2024-02-16T08:15:52;2.13;;;1.70;;
67528;SDS011;54366;51.980;5.856;2024-02-16T08:18:19;2.30;;;1.88;;
67528;SDS011;54366;51.980;5.856;2024-02-16T08:20:45;3.78;;;2.50;;
67528;SDS011;54366;51.980;5.856;2024-02-16T08:23:12;2.78;;;2.22;;
67528;SDS011;54366;51.980;5.856;2024-02-16T08:25:38;2.63;;;1.90;;
67528;SDS011;54366;51.980;5.856;2024-02-16T08:28:04;2.63;;;1.70;;
67528;SDS011;54366;51.980;5.856;2024-02-16T08:30:31;2.70;;;1.83;;
67528;SDS011;54366;51.980;5.856;2024-02-16T08:32:58;1.73;;;1.63;;
67528;SDS011;54366;51.980;5.856;2024-02-16T08:35:25;2.42;;;1.75;;
67528;SDS011;54366;51.980;5.856;2024-02-16T08:37:52;2.10;;;1.67;;
67528;SDS011;54366;51.980;5.856;2024-02-16T08:40:18;1.20;;;1.10;;
67528;SDS011;54366;51.980;5.856;2024-02-16T08:42:44;1.77;;;1.42;;
67528;SDS011;54366;51.980;5.856;2024-02-16T08:45:11;1.63;;;1.30;;
67528;SDS011;54366;51.980;5.856;2024-02-16T08:47:38;1.58;;;1.27;;
67528;SDS011;54366;51.980;5.856;2024-02-16T08:50:04;2.05;;;1.30;;
67528;SDS011;54366;51.980;5.856;2024-02-16T08:52:32;1.45;;;1.00;;
67528;SDS011;54366;51.980;5.856;2024-02-16T08:54:59;2.00;;;1.27;;
67528;SDS011;54366;51.980;5.856;2024-02-16T08:57:25;2.50;;;1.55;;
67528;SDS011;54366;51.980;5.856;2024-02-16T08:59:51;2.22;;;1.58;;
67528;SDS011;54366;51.980;5.856;2024-02-16T09:02:17;1.30;;;1.20;;
67528;SDS011;54366;51.980;5.856;2024-02-16T09:04:45;1.60;;;1.35;;
67528;SDS011;54366;51.980;5.856;2024-02-16T09:07:11;1.60;;;1.50;;
67528;SDS011;54366;51.980;5.856;2024-02-16T09:09:38;2.22;;;1.92;;
67528;SDS011;54366;51.980;5.856;2024-02-16T09:12:04;3.20;;;2.20;;
67528;SDS011;54366;51.980;5.856;2024-02-16T09:14:31;3.67;;;2.70;;
67528;SDS011;54366;51.980;5.856;2024-02-16T09:16:57;3.75;;;2.50;;
67528;SDS011;54366;51.980;5.856;2024-02-16T09:19:24;2.40;;;2.20;;
67528;SDS011;54366;51.980;5.856;2024-02-16T09:21:50;3.97;;;2.67;;
67528;SDS011;54366;51.980;5.856;2024-02-16T09:24:17;3.40;;;2.40;;
67528;SDS011;54366;51.980;5.856;2024-02-16T09:26:44;3.88;;;2.63;;
67528;SDS011;54366;51.980;5.856;2024-02-16T09:29:13;4.75;;;3.08;;
67528;SDS011;54366;51.980;5.856;2024-02-16T09:31:40;2.58;;;2.22;;
67528;SDS011;54366;51.980;5.856;2024-02-16T09:34:07;3.00;;;2.20;;
67528;SDS011;54366;51.980;5.856;2024-02-16T09:36:33;3.83;;;3.00;;
67528;SDS011;54366;51.980;5.856;2024-02-16T09:39:02;4.15;;;2.80;;
67528;SDS011;54366;51.980;5.856;2024-02-16T09:41:28;3.47;;;2.35;;
67528;SDS011;54366;51.980;5.856;2024-02-16T09:43:55;3.08;;;2.33;;
67528;SDS011;54366;51.980;5.856;2024-02-16T09:46:21;2.20;;;2.00;;
67528;SDS011;54366;51.980;5.856;2024-02-16T09:48:49;3.38;;;2.70;;
67528;SDS011;54366;51.980;5.856;2024-02-16T09:51:18;4.35;;;3.15;;
67528;SDS011;54366;51.980;5.856;2024-02-16T09:53:45;3.03;;;2.50;;
67528;SDS011;54366;51.980;5.856;2024-02-16T09:56:20;3.70;;;2.70;;
67528;SDS011;54366;51.980;5.856;2024-02-16T09:58:47;4.20;;;2.60;;
67528;SDS011;54366;51.980;5.856;2024-02-16T10:01:20;2.90;;;2.58;;
67528;SDS011;54366;51.980;5.856;2024-02-16T10:03:48;4.60;;;3.42;;
67528;SDS011;54366;51.980;5.856;2024-02-16T10:06:16;4.60;;;3.50;;
67528;SDS011;54366;51.980;5.856;2024-02-16T10:08:49;3.55;;;2.97;;
67528;SDS011;54366;51.980;5.856;2024-02-16T10:11:20;4.88;;;2.88;;
67528;SDS011;54366;51.980;5.856;2024-02-16T10:14:02;3.92;;;2.90;;
67528;SDS011;54366;51.980;5.856;2024-02-16T10:16:30;3.75;;;2.80;;
67528;SDS011;54366;51.980;5.856;2024-02-16T10:19:03;4.38;;;3.30;;
67528;SDS011;54366;51.980;5.856;2024-02-16T10:21:33;5.93;;;3.70;;
67528;SDS011;54366;51.980;5.856;2024-02-16T10:24:00;3.15;;;2.67;;
67528;SDS011;54366;51.980;5.856;2024-02-16T10:26:34;4.60;;;3.20;;
67528;SDS011;54366;51.980;5.856;2024-02-16T10:29:04;5.30;;;3.85;;
67528;SDS011;54366;51.980;5.856;2024-02-16T10:31:32;4.07;;;3.05;;
67528;SDS011;54366;51.980;5.856;2024-02-16T10:34:00;3.72;;;2.90;;
67528;SDS011;54366;51.980;5.856;2024-02-16T10:36:33;3.33;;;2.55;;
67528;SDS011;54366;51.980;5.856;2024-02-16T10:39:01;5.00;;;3.05;;
67528;SDS011;54366;51.980;5.856;2024-02-16T10:41:35;4.57;;;3.10;;
67528;SDS011;54366;51.980;5.856;2024-02-16T10:44:02;4.03;;;3.40;;
67528;SDS011;54366;51.980;5.856;2024-02-16T10:46:32;4.22;;;3.20;;
67528;SDS011;54366;51.980;5.856;2024-02-16T10:48:59;4.60;;;3.10;;
67528;SDS011;54366;51.980;5.856;2024-02-16T10:51:43;4.60;;;3.40;;
67528;SDS011;54366;51.980;5.856;2024-02-16T10:54:17;5.30;;;3.40;;
67528;SDS011;54366;51.980;5.856;2024-02-16T10:56:45;4.72;;;3.70;;
67528;SDS011;54366;51.980;5.856;2024-02-16T10:59:11;4.68;;;3.45;;
67528;SDS011;54366;51.980;5.856;2024-02-16T11:01:38;3.58;;;3.00;;
67528;SDS011;54366;51.980;5.856;2024-02-16T11:04:13;5.18;;;4.10;;
67528;SDS011;54366;51.980;5.856;2024-02-16T11:06:54;5.32;;;3.88;;
67528;SDS011;54366;51.980;5.856;2024-02-16T11:09:38;5.43;;;4.00;;
67528;SDS011;54366;51.980;5.856;2024-02-16T11:12:06;4.97;;;3.70;;
67528;SDS011;54366;51.980;5.856;2024-02-16T11:14:41;4.28;;;3.22;;
67528;SDS011;54366;51.980;5.856;2024-02-16T11:19:45;6.25;;;4.55;;
67528;SDS011;54366;51.980;5.856;2024-02-16T11:22:19;5.13;;;4.53;;
67528;SDS011;54366;51.980;5.856;2024-02-16T11:24:49;5.20;;;4.03;;
67528;SDS011;54366;51.980;5.856;2024-02-16T11:27:18;4.28;;;3.63;;
67528;SDS011;54366;51.980;5.856;2024-02-16T11:29:45;4.10;;;3.70;;
67528;SDS011;54366;51.980;5.856;2024-02-16T11:32:12;3.88;;;3.45;;
67528;SDS011;54366;51.980;5.856;2024-02-16T11:34:38;3.85;;;3.17;;
67528;SDS011;54366;51.980;5.856;2024-02-16T11:37:04;5.50;;;3.85;;
67528;SDS011;54366;51.980;5.856;2024-02-16T11:39:31;3.78;;;3.33;;
67528;SDS011;54366;51.980;5.856;2024-02-16T11:42:01;6.25;;;4.70;;
67528;SDS011;54366;51.980;5.856;2024-02-16T11:44:29;5.90;;;5.30;;
67528;SDS011;54366;51.980;5.856;2024-02-16T11:46:58;7.38;;;4.75;;
67528;SDS011;54366;51.980;5.856;2024-02-16T11:49:25;5.45;;;4.30;;
67528;SDS011;54366;51.980;5.856;2024-02-16T11:51:54;4.88;;;4.43;;
67528;SDS011;54366;51.980;5.856;2024-02-16T11:54:21;6.10;;;5.13;;
67528;SDS011;54366;51.980;5.856;2024-02-16T11:56:48;5.45;;;4.95;;
67528;SDS011;54366;51.980;5.856;2024-02-16T11:59:18;5.15;;;4.65;;
67528;SDS011;54366;51.980;5.856;2024-02-16T12:01:58;4.95;;;4.53;;
67528;SDS011;54366;51.980;5.856;2024-02-16T12:04:25;4.40;;;4.00;;
67528;SDS011;54366;51.980;5.856;2024-02-16T12:06:59;3.80;;;3.50;;
67528;SDS011;54366;51.980;5.856;2024-02-16T12:09:27;5.47;;;4.30;;
67528;SDS011;54366;51.980;5.856;2024-02-16T12:11:54;4.15;;;3.75;;
67528;SDS011;54366;51.980;5.856;2024-02-16T12:14:21;3.83;;;3.53;;
67528;SDS011;54366;51.980;5.856;2024-02-16T12:16:48;3.78;;;3.47;;
67528;SDS011;54366;51.980;5.856;2024-02-16T12:19:16;3.55;;;3.25;;
67528;SDS011;54366;51.980;5.856;2024-02-16T12:21:44;3.63;;;3.33;;
67528;SDS011;54366;51.980;5.856;2024-02-16T12:24:10;3.63;;;3.33;;
67528;SDS011;54366;51.980;5.856;2024-02-16T12:26:37;3.38;;;3.08;;
67528;SDS011;54366;51.980;5.856;2024-02-16T12:29:03;4.18;;;3.78;;
67528;SDS011;54366;51.980;5.856;2024-02-16T12:31:29;4.40;;;4.00;;
67528;SDS011;54366;51.980;5.856;2024-02-16T12:33:56;3.13;;;2.83;;
67528;SDS011;54366;51.980;5.856;2024-02-16T12:36:22;3.00;;;2.70;;
67528;SDS011;54366;51.980;5.856;2024-02-16T12:38:52;5.07;;;4.38;;
67528;SDS011;54366;51.980;5.856;2024-02-16T12:41:19;5.30;;;4.60;;
67528;SDS011;54366;51.980;5.856;2024-02-16T12:43:45;3.70;;;3.40;;
67528;SDS011;54366;51.980;5.856;2024-02-16T12:46:11;3.75;;;3.45;;
67528;SDS011;54366;51.980;5.856;2024-02-16T12:48:38;4.40;;;4.00;;
67528;SDS011;54366;51.980;5.856;2024-02-16T12:51:04;4.30;;;4.00;;
67528;SDS011;54366;51.980;5.856;2024-02-16T12:53:31;4.50;;;4.10;;
67528;SDS011;54366;51.980;5.856;2024-02-16T12:56:09;5.32;;;4.78;;
67528;SDS011;54366;51.980;5.856;2024-02-16T12:58:36;6.13;;;5.53;;
67528;SDS011;54366;51.980;5.856;2024-02-16T13:01:02;5.57;;;5.15;;
67528;SDS011;54366;51.980;5.856;2024-02-16T13:03:34;5.95;;;5.35;;
67528;SDS011;54366;51.980;5.856;2024-02-16T13:06:01;5.28;;;4.78;;
67528;SDS011;54366;51.980;5.856;2024-02-16T13:08:28;5.72;;;5.22;;
67528;SDS011;54366;51.980;5.856;2024-02-16T13:10:58;6.75;;;6.05;;
67528;SDS011;54366;51.980;5.856;2024-02-16T13:13:24;5.50;;;5.10;;
67528;SDS011;54366;51.980;5.856;2024-02-16T13:15:51;5.35;;;4.90;;
67528;SDS011;54366;51.980;5.856;2024-02-16T13:18:17;5.80;;;5.30;;
67528;SDS011;54366;51.980;5.856;2024-02-16T13:20:43;5.80;;;5.30;;
67528;SDS011;54366;51.980;5.856;2024-02-16T13:23:10;6.10;;;5.32;;
67528;SDS011;54366;51.980;5.856;2024-02-16T13:25:37;7.55;;;6.85;;
67528;SDS011;54366;51.980;5.856;2024-02-16T13:28:03;6.30;;;5.65;;
67528;SDS011;54366;51.980;5.856;2024-02-16T13:30:30;5.47;;;4.97;;
67528;SDS011;54366;51.980;5.856;2024-02-16T13:32:57;6.60;;;6.00;;
67528;SDS011;54366;51.980;5.856;2024-02-16T13:35:23;6.80;;;6.13;;
67528;SDS011;54366;51.980;5.856;2024-02-16T13:37:49;6.57;;;6.03;;
67528;SDS011;54366;51.980;5.856;2024-02-16T13:40:17;6.20;;;5.70;;
67528;SDS011;54366;51.980;5.856;2024-02-16T13:42:43;5.57;;;5.07;;
67528;SDS011;54366;51.980;5.856;2024-02-16T13:45:11;5.30;;;4.90;;
67528;SDS011;54366;51.980;5.856;2024-02-16T13:47:37;4.10;;;3.70;;
67528;SDS011;54366;51.980;5.856;2024-02-16T13:50:07;5.10;;;4.40;;
67528;SDS011;54366;51.980;5.856;2024-02-16T13:52:33;3.80;;;3.50;;
67528;SDS011;54366;51.980;5.856;2024-02-16T13:55:01;4.40;;;4.00;;
67528;SDS011;54366;51.980;5.856;2024-02-16T13:57:27;3.70;;;3.30;;
67528;SDS011;54366;51.980;5.856;2024-02-16T13:59:53;3.58;;;3.30;;
67528;SDS011;54366;51.980;5.856;2024-02-16T14:02:20;4.30;;;3.90;;
67528;SDS011;54366;51.980;5.856;2024-02-16T14:04:46;4.30;;;3.90;;
67528;SDS011;54366;51.980;5.856;2024-02-16T14:07:13;3.42;;;3.15;;
67528;SDS011;54366;51.980;5.856;2024-02-16T14:09:39;3.30;;;3.00;;
67528;SDS011;54366;51.980;5.856;2024-02-16T14:12:05;3.97;;;3.10;;
67528;SDS011;54366;51.980;5.856;2024-02-16T14:14:32;3.28;;;2.97;;
67528;SDS011;54366;51.980;5.856;2024-02-16T14:16:58;2.45;;;2.20;;
67528;SDS011;54366;51.980;5.856;2024-02-16T14:19:24;2.97;;;2.78;;
67528;SDS011;54366;51.980;5.856;2024-02-16T14:21:51;2.40;;;2.20;;
67528;SDS011;54366;51.980;5.856;2024-02-16T14:24:17;3.40;;;2.65;;
67528;SDS011;54366;51.980;5.856;2024-02-16T14:26:43;2.10;;;2.00;;
67528;SDS011;54366;51.980;5.856;2024-02-16T14:29:10;1.60;;;1.50;;
67528;SDS011;54366;51.980;5.856;2024-02-16T14:31:36;1.80;;;1.70;;
67528;SDS011;54366;51.980;5.856;2024-02-16T14:34:02;1.90;;;1.80;;
67528;SDS011;54366;51.980;5.856;2024-02-16T14:36:29;2.35;;;1.70;;
67528;SDS011;54366;51.980;5.856;2024-02-16T14:38:55;1.52;;;1.42;;
67528;SDS011;54366;51.980;5.856;2024-02-16T14:41:21;1.70;;;1.60;;
67528;SDS011;54366;51.980;5.856;2024-02-16T14:43:48;1.88;;;1.52;;
67528;SDS011;54366;51.980;5.856;2024-02-16T14:46:14;1.50;;;1.40;;
67528;SDS011;54366;51.980;5.856;2024-02-16T14:48:41;1.33;;;1.23;;
67528;SDS011;54366;51.980;5.856;2024-02-16T14:51:08;1.23;;;1.00;;